Arbor Hill, Iowa
Current Conditions -  °F | °C
As of 1:55 AM on Tuesday 21 Oct 2014 (Local Time) from KPRO Reporting Station
Clear Clear  
Wind Chill: 37°   Ceiling: Unl
Heat Index: 40°   Visibility: 10mi
Dew Point: 38°   Wind: 5mph
Humidity: 94%   Direction: 320°NW
Pressure: 30.07"   Gusts: NA
Location:  41.5397°N, 94.299°W
Report Text: KPRO 210655Z AUTO 32004KT 10SM CLR 04/04 A3007 RMK AO2 T00440035
Loading
Personal Weather Stations






























Interactive Weather Map
Tropical Storm Tracking
New forecast layout! Learn more

10-Day Weather Forecast

Advertisements
Track Severe Weather on mobile